createdAt,value
2019-03-11T00:01:29.419Z,3.70
2019-03-11T00:04:00.199Z,3.70
2019-03-11T00:06:30.577Z,3.70
2019-03-11T00:09:01.252Z,3.70
2019-03-11T00:11:31.942Z,3.80
2019-03-11T00:14:02.311Z,3.80
2019-03-11T00:16:33.039Z,3.70
2019-03-11T00:19:04.291Z,3.70
2019-03-11T00:21:34.960Z,3.70
2019-03-11T00:24:05.309Z,3.70
2019-03-11T00:26:36.035Z,3.60
2019-03-11T00:29:06.658Z,3.60
2019-03-11T00:31:37.125Z,3.50
2019-03-11T00:34:07.598Z,3.50
2019-03-11T00:36:38.258Z,3.50
2019-03-11T00:39:08.704Z,3.40
2019-03-11T00:41:39.383Z,3.40
2019-03-11T00:44:09.814Z,3.40
2019-03-11T00:46:40.780Z,3.40
2019-03-11T00:49:11.488Z,3.40
2019-03-11T00:51:42.356Z,3.50
2019-03-11T00:54:12.700Z,3.60
2019-03-11T00:56:43.430Z,3.60
2019-03-11T00:59:14.143Z,3.60
2019-03-11T01:01:44.836Z,3.60
2019-03-11T01:04:15.186Z,3.60
2019-03-11T01:06:45.688Z,3.50
2019-03-11T01:09:16.884Z,3.50
2019-03-11T01:11:47.238Z,3.50
2019-03-11T01:14:17.587Z,3.60
2019-03-11T01:16:47.912Z,3.50
2019-03-11T01:19:18.269Z,3.60
2019-03-11T01:21:49.228Z,3.60
2019-03-11T01:24:19.969Z,3.60
2019-03-11T01:26:50.697Z,3.50
2019-03-11T01:29:21.477Z,3.50
2019-03-11T01:31:52.557Z,3.50
2019-03-11T01:34:23.169Z,3.60
2019-03-11T01:37:00.479Z,3.60
2019-03-11T01:39:31.235Z,3.60
2019-03-11T01:42:05.140Z,3.60
2019-03-11T01:44:35.555Z,3.60
2019-03-11T01:47:06.596Z,3.60
2019-03-11T01:49:36.944Z,3.50
2019-03-11T01:52:09.459Z,3.50
2019-03-11T01:54:39.821Z,3.50
2019-03-11T01:57:10.175Z,3.60
2019-03-11T01:59:59.985Z,3.50
2019-03-11T02:02:30.718Z,3.60
2019-03-11T02:05:01.339Z,3.60
2019-03-11T02:07:32.088Z,3.60
2019-03-11T02:10:03.573Z,3.60
2019-03-11T02:12:34.184Z,3.60
2019-03-11T02:15:07.836Z,3.60
2019-03-11T02:17:38.903Z,3.60
2019-03-11T02:20:15.443Z,3.60
2019-03-11T02:22:46.080Z,3.60
2019-03-11T02:25:16.664Z,3.50
2019-03-11T02:27:47.605Z,3.50
2019-03-11T02:30:18.592Z,3.50
2019-03-11T02:32:49.242Z,3.50
2019-03-11T02:35:31.032Z,3.50
2019-03-11T02:38:01.625Z,3.50
2019-03-11T02:40:31.967Z,3.50
2019-03-11T02:43:02.382Z,3.50
2019-03-11T02:45:32.998Z,3.50
2019-03-11T02:48:03.318Z,3.50
2019-03-11T02:50:47.180Z,3.50
2019-03-11T02:53:17.771Z,3.40
2019-03-11T02:56:08.023Z,3.40
2019-03-11T02:58:38.355Z,3.30
2019-03-11T03:01:28.029Z,3.30
2019-03-11T03:04:03.312Z,3.00
2019-03-11T03:06:33.632Z,3.10
2019-03-11T03:09:05.563Z,3.20
2019-03-11T03:11:36.148Z,3.10
2019-03-11T03:14:06.997Z,3.10
2019-03-11T03:16:37.541Z,3.10
2019-03-11T03:19:08.540Z,3.10
2019-03-11T03:21:39.176Z,3.00
2019-03-11T03:24:09.942Z,3.10
2019-03-11T03:26:40.655Z,3.00
2019-03-11T03:29:11.015Z,3.00
2019-03-11T03:31:42.167Z,3.10
2019-03-11T03:34:15.859Z,3.10
2019-03-11T03:36:46.448Z,3.20
2019-03-11T03:39:17.334Z,3.20
2019-03-11T03:41:48.019Z,3.20
2019-03-11T03:44:18.366Z,3.20
2019-03-11T03:46:48.924Z,3.20
2019-03-11T03:49:20.029Z,3.20
2019-03-11T03:51:50.356Z,3.20
2019-03-11T03:54:20.853Z,3.20
2019-03-11T03:56:54.075Z,3.30
2019-03-11T03:59:23.225Z,3.30
2019-03-11T04:01:53.956Z,3.40
2019-03-11T04:04:24.300Z,3.40
2019-03-11T04:06:54.621Z,3.40
2019-03-11T04:09:44.780Z,3.30
2019-03-11T04:12:15.460Z,3.30
2019-03-11T04:14:45.775Z,3.40
2019-03-11T04:17:16.574Z,3.40
2019-03-11T04:19:47.552Z,3.40
2019-03-11T04:22:18.231Z,3.40
2019-03-11T04:24:48.588Z,3.40
2019-03-11T04:27:19.335Z,3.50
2019-03-11T04:29:50.318Z,3.50
2019-03-11T04:32:21.253Z,3.40
2019-03-11T04:34:51.648Z,3.50
2019-03-11T04:37:22.089Z,3.50
2019-03-11T04:39:53.119Z,3.50
2019-03-11T04:42:23.440Z,3.50
2019-03-11T04:44:54.182Z,3.40
2019-03-11T04:47:24.856Z,3.40
2019-03-11T04:49:56.279Z,3.40
2019-03-11T04:52:27.283Z,3.40
2019-03-11T04:54:58.013Z,3.40
2019-03-11T04:57:28.731Z,3.40
2019-03-11T05:00:27.040Z,3.40
2019-03-11T05:02:57.371Z,3.50
2019-03-11T05:05:28.045Z,3.40
2019-03-11T05:07:58.426Z,3.50
2019-03-11T05:10:29.091Z,3.40
2019-03-11T05:12:59.413Z,3.40
2019-03-11T05:15:30.134Z,3.50
2019-03-11T05:18:01.193Z,3.40
2019-03-11T05:20:32.246Z,3.50
2019-03-11T05:23:03.245Z,3.50
2019-03-11T05:25:33.570Z,3.60
2019-03-11T05:28:04.446Z,3.60
2019-03-11T05:30:35.224Z,3.60
2019-03-11T05:33:05.894Z,3.70
2019-03-11T05:35:36.510Z,3.70
2019-03-11T05:38:06.997Z,3.70
2019-03-11T05:40:37.714Z,3.70
2019-03-11T05:43:08.336Z,3.70
2019-03-11T05:45:38.968Z,3.70
2019-03-11T05:48:09.576Z,3.80
2019-03-11T05:50:40.209Z,3.70
2019-03-11T05:53:11.429Z,3.80
2019-03-11T05:55:42.044Z,3.80
2019-03-11T05:58:12.694Z,3.90
2019-03-11T06:00:43.709Z,3.80
2019-03-11T06:03:14.633Z,3.70
2019-03-11T06:05:44.956Z,3.70
2019-03-11T06:08:23.639Z,3.70
2019-03-11T06:10:55.017Z,3.70
2019-03-11T06:13:35.579Z,3.70
2019-03-11T06:15:58.207Z,3.80
2019-03-11T06:18:33.159Z,3.90
2019-03-11T06:21:08.336Z,3.90
2019-03-11T06:23:38.670Z,3.90
2019-03-11T06:26:09.622Z,3.90
2019-03-11T06:28:40.338Z,3.90
2019-03-11T06:31:11.836Z,4.00
2019-03-11T06:33:42.151Z,4.10
2019-03-11T06:36:12.801Z,4.10
2019-03-11T06:38:43.176Z,4.20
2019-03-11T06:41:13.493Z,4.20
2019-03-11T06:43:44.257Z,4.20
2019-03-11T06:46:14.944Z,4.20
2019-03-11T06:48:45.655Z,4.30
2019-03-11T06:51:16.044Z,4.30
2019-03-11T06:53:47.554Z,4.30
2019-03-11T06:56:18.643Z,4.20
2019-03-11T06:58:49.291Z,4.30
2019-03-11T07:01:19.857Z,4.30
2019-03-11T07:03:50.202Z,4.30
2019-03-11T07:06:21.090Z,4.30
2019-03-11T07:08:51.413Z,4.40
2019-03-11T07:11:21.791Z,4.50
2019-03-11T07:13:52.104Z,4.50
2019-03-11T07:16:23.302Z,4.50
2019-03-11T07:18:54.404Z,4.60
2019-03-11T07:21:24.812Z,4.50
2019-03-11T07:23:55.512Z,4.60
2019-03-11T07:26:26.340Z,4.50
2019-03-11T07:28:57.367Z,4.50
2019-03-11T07:31:28.084Z,4.60
2019-03-11T07:33:58.617Z,4.60
2019-03-11T07:36:29.261Z,4.60
2019-03-11T07:38:59.572Z,4.50
2019-03-11T07:41:30.227Z,4.70
2019-03-11T07:44:00.834Z,4.80
2019-03-11T07:46:31.451Z,4.80
2019-03-11T07:49:02.159Z,4.90
2019-03-11T07:51:32.569Z,4.90
2019-03-11T07:54:03.207Z,5.00
2019-03-11T07:56:33.809Z,5.00
2019-03-11T07:59:04.439Z,5.10
2019-03-11T08:01:35.136Z,5.20
2019-03-11T08:04:05.856Z,5.20
2019-03-11T08:06:36.453Z,5.30
2019-03-11T08:09:08.023Z,5.40
2019-03-11T08:11:38.353Z,5.30
2019-03-11T08:14:09.024Z,5.40
2019-03-11T08:16:39.718Z,5.30
2019-03-11T08:19:10.450Z,5.20
2019-03-11T08:21:41.073Z,5.20
2019-03-11T08:24:11.436Z,5.10
2019-03-11T08:26:43.373Z,5.10
2019-03-11T08:29:14.098Z,5.10
2019-03-11T08:31:44.749Z,5.10
2019-03-11T08:34:15.104Z,5.10
2019-03-11T08:36:45.426Z,5.10
2019-03-11T08:39:15.747Z,5.10
2019-03-11T08:41:46.467Z,5.10
2019-03-11T08:44:17.104Z,5.00
2019-03-11T08:46:47.755Z,5.10
2019-03-11T08:49:18.860Z,5.10
2019-03-11T08:51:49.868Z,5.20
2019-03-11T08:54:20.182Z,5.20
2019-03-11T08:56:50.560Z,5.20
2019-03-11T08:59:21.443Z,5.30
2019-03-11T09:01:52.147Z,5.30
2019-03-11T09:04:22.876Z,5.30
2019-03-11T09:06:53.487Z,5.40
2019-03-11T09:09:24.136Z,5.50
2019-03-11T09:11:54.849Z,5.60
2019-03-11T09:14:25.277Z,5.50
2019-03-11T09:16:55.627Z,5.60
2019-03-11T09:19:26.041Z,5.50
2019-03-11T09:21:57.007Z,5.60
2019-03-11T09:24:27.349Z,5.60
2019-03-11T09:26:57.982Z,5.60
2019-03-11T09:29:28.710Z,5.50
2019-03-11T09:31:59.476Z,5.50
2019-03-11T09:34:30.188Z,5.50
2019-03-11T09:37:00.796Z,5.40
2019-03-11T09:39:31.449Z,5.40
2019-03-11T09:42:01.826Z,5.40
2019-03-11T09:44:32.158Z,5.40
2019-03-11T09:47:02.744Z,5.40
2019-03-11T09:49:33.766Z,5.40
2019-03-11T09:52:04.108Z,5.30
2019-03-11T09:54:34.460Z,5.30
2019-03-11T09:57:05.295Z,5.40
2019-03-11T09:59:35.644Z,5.50
2019-03-11T10:02:06.051Z,5.70
2019-03-11T10:04:56.535Z,5.90
2019-03-11T10:07:26.882Z,6.00
2019-03-11T10:09:57.863Z,6.10
2019-03-11T10:12:28.541Z,6.10
2019-03-11T10:14:59.267Z,6.20
2019-03-11T10:17:30.061Z,6.40
2019-03-11T10:20:00.527Z,6.40
2019-03-11T10:22:30.858Z,6.40
2019-03-11T10:25:01.558Z,6.50
2019-03-11T10:27:31.942Z,6.60
2019-03-11T10:30:04.774Z,6.70
2019-03-11T10:32:35.425Z,6.70
2019-03-11T10:35:30.149Z,6.80
2019-03-11T10:37:40.954Z,6.80
2019-03-11T10:40:26.078Z,6.70
2019-03-11T10:42:56.404Z,6.60
2019-03-11T10:45:31.496Z,6.60
2019-03-11T10:47:58.792Z,6.60
2019-03-11T10:50:29.137Z,6.50
2019-03-11T10:52:59.489Z,6.40
2019-03-11T10:55:30.101Z,6.50
2019-03-11T10:58:00.418Z,6.50
2019-03-11T11:00:34.956Z,6.70
2019-03-11T11:03:05.344Z,6.70
2019-03-11T11:05:36.322Z,6.80
2019-03-11T11:08:07.032Z,6.90
2019-03-11T11:10:37.972Z,7.00
2019-03-11T11:13:08.591Z,7.20
2019-03-11T11:15:38.975Z,7.30
2019-03-11T11:18:09.594Z,7.50
2019-03-11T11:20:40.529Z,7.70
2019-03-11T11:23:11.593Z,7.70
2019-03-11T11:25:42.554Z,7.80
2019-03-11T11:28:13.184Z,7.70
2019-03-11T11:30:43.503Z,7.70
2019-03-11T11:33:14.610Z,7.30
2019-03-11T11:35:45.252Z,7.20
2019-03-11T11:38:15.966Z,6.80
2019-03-11T11:40:46.641Z,6.50
2019-03-11T11:43:17.646Z,6.30
2019-03-11T11:45:47.986Z,6.20
2019-03-11T11:48:18.677Z,6.20
2019-03-11T11:50:49.295Z,6.10
2019-03-11T11:53:19.905Z,6.00
2019-03-11T11:55:57.669Z,5.90
2019-03-11T11:58:22.727Z,5.70
2019-03-11T12:00:53.456Z,5.70
2019-03-11T12:03:24.643Z,5.60
2019-03-11T12:05:55.028Z,5.40
2019-03-11T12:08:25.719Z,5.30
2019-03-11T12:10:56.789Z,5.30
2019-03-11T12:13:27.721Z,5.30
2019-03-11T12:15:58.324Z,5.40
2019-03-11T12:18:28.976Z,5.40
2019-03-11T12:20:59.341Z,5.30
2019-03-11T12:23:30.339Z,5.30
2019-03-11T12:26:00.959Z,5.40
2019-03-11T12:28:31.642Z,5.30
2019-03-11T12:31:01.991Z,5.30
2019-03-11T12:33:32.612Z,5.30
2019-03-11T12:36:03.525Z,5.40
2019-03-11T12:38:33.872Z,5.50
2019-03-11T12:41:04.573Z,5.50
2019-03-11T12:43:34.980Z,5.60
2019-03-11T12:46:05.641Z,5.70
2019-03-11T12:48:35.977Z,5.70
2019-03-11T12:51:06.605Z,5.70
2019-03-11T12:53:56.642Z,5.70
2019-03-11T12:56:27.740Z,5.80
2019-03-11T12:58:58.423Z,6.00
2019-03-11T13:01:28.774Z,6.20
2019-03-11T13:03:59.600Z,6.30
2019-03-11T13:06:29.967Z,6.30
2019-03-11T13:09:00.609Z,6.30
2019-03-11T13:11:30.985Z,6.40
2019-03-11T13:14:01.294Z,6.50
2019-03-11T13:16:31.905Z,6.50
2019-03-11T13:19:12.802Z,6.50
2019-03-11T13:21:34.887Z,6.30
2019-03-11T13:24:05.727Z,6.20
2019-03-11T13:26:36.122Z,6.20
2019-03-11T13:29:06.907Z,6.10
2019-03-11T13:31:37.257Z,6.20
2019-03-11T13:34:07.655Z,6.20
2019-03-11T13:36:57.407Z,6.10
2019-03-11T13:39:28.089Z,6.10
2019-03-11T13:41:58.805Z,6.10
2019-03-11T13:44:29.901Z,6.10
2019-03-11T13:47:00.587Z,6.00
2019-03-11T13:49:30.942Z,5.90
2019-03-11T13:52:01.353Z,5.80
2019-03-11T13:54:31.692Z,5.80
2019-03-11T13:57:02.504Z,5.80
2019-03-11T13:59:33.343Z,5.80
2019-03-11T14:02:03.690Z,5.70
2019-03-11T14:04:34.026Z,5.70
2019-03-11T14:07:04.553Z,5.70
2019-03-11T14:09:34.909Z,5.70
2019-03-11T14:12:05.715Z,5.80
2019-03-11T14:14:36.498Z,5.90
2019-03-11T14:17:06.871Z,6.00
2019-03-11T14:19:37.250Z,6.10
2019-03-11T14:22:07.879Z,6.10
2019-03-11T14:24:38.229Z,6.10
2019-03-11T14:27:08.662Z,6.10
2019-03-11T14:29:39.007Z,6.10
2019-03-11T14:32:10.573Z,6.20
2019-03-11T14:34:43.002Z,6.20
2019-03-11T14:37:13.689Z,6.20
2019-03-11T14:39:44.405Z,6.30
2019-03-11T14:42:15.061Z,6.30
2019-03-11T14:44:45.800Z,6.30
2019-03-11T14:47:16.521Z,6.30
2019-03-11T14:49:46.916Z,6.40
2019-03-11T14:52:17.289Z,6.50
2019-03-11T14:54:47.634Z,6.70
2019-03-11T14:57:18.001Z,6.80
2019-03-11T14:59:48.385Z,7.00
2019-03-11T15:02:21.194Z,7.20
2019-03-11T15:04:52.301Z,7.30
2019-03-11T15:07:22.759Z,7.30
2019-03-11T15:09:53.478Z,7.40
2019-03-11T15:12:24.445Z,7.50
2019-03-11T15:14:55.127Z,7.50
2019-03-11T15:17:25.871Z,7.40
2019-03-11T15:19:56.188Z,7.20
2019-03-11T15:22:26.933Z,7.30
2019-03-11T15:24:57.245Z,7.50
2019-03-11T15:27:27.617Z,7.60
2019-03-11T15:29:57.935Z,7.80
2019-03-11T15:32:28.304Z,7.70
2019-03-11T15:34:59.020Z,7.70
2019-03-11T15:37:29.394Z,7.60
2019-03-11T15:40:00.034Z,7.40
2019-03-11T15:42:31.673Z,7.30
2019-03-11T15:45:02.771Z,7.20
2019-03-11T15:47:33.505Z,7.10
2019-03-11T15:50:05.759Z,6.90
2019-03-11T15:52:36.063Z,6.80
2019-03-11T15:55:11.503Z,6.70
2019-03-11T15:57:42.403Z,6.70
2019-03-11T16:00:20.861Z,6.80
2019-03-11T16:02:51.217Z,6.90
2019-03-11T16:05:23.578Z,6.80
2019-03-11T16:07:53.946Z,6.90
2019-03-11T16:10:24.747Z,6.90
2019-03-11T16:12:55.123Z,6.90
2019-03-11T16:15:25.590Z,7.00
2019-03-11T16:17:56.378Z,7.00
2019-03-11T16:20:27.904Z,7.10
2019-03-11T16:22:58.599Z,7.10
2019-03-11T16:25:29.288Z,7.00
2019-03-11T16:27:59.629Z,6.90
2019-03-11T16:30:30.028Z,6.90
2019-03-11T16:33:01.147Z,6.70
2019-03-11T16:35:31.750Z,6.60
2019-03-11T16:38:02.214Z,6.50
2019-03-11T16:40:32.930Z,6.50
2019-03-11T16:43:03.668Z,6.40
2019-03-11T16:45:34.018Z,6.30
2019-03-11T16:48:04.533Z,6.30
2019-03-11T16:50:35.701Z,6.30
2019-03-11T16:53:06.039Z,6.20
2019-03-11T16:55:38.047Z,6.20
2019-03-11T16:58:08.369Z,6.20
2019-03-11T17:00:43.329Z,6.20
2019-03-11T17:03:14.292Z,6.20
2019-03-11T17:05:45.034Z,6.20
2019-03-11T17:08:15.995Z,6.10
2019-03-11T17:10:46.714Z,6.10
2019-03-11T17:13:17.332Z,6.10
2019-03-11T17:15:48.026Z,6.10
2019-03-11T17:18:18.727Z,6.10
2019-03-11T17:20:49.889Z,6.00
2019-03-11T17:23:20.609Z,6.00
2019-03-11T17:25:51.231Z,6.00
2019-03-11T17:28:21.645Z,6.00
2019-03-11T17:30:52.047Z,6.00
2019-03-11T17:33:23.714Z,6.00
2019-03-11T17:35:54.070Z,5.90
2019-03-11T17:38:25.153Z,5.90
2019-03-11T17:40:55.922Z,5.90
2019-03-11T17:43:26.830Z,5.90
2019-03-11T17:45:57.167Z,5.90
2019-03-11T17:48:27.918Z,5.80
2019-03-11T17:50:58.596Z,5.90
2019-03-11T17:53:29.536Z,5.90
2019-03-11T17:55:59.891Z,5.90
2019-03-11T17:58:30.653Z,5.90
2019-03-11T18:01:01.157Z,5.90
2019-03-11T18:03:31.824Z,6.00
2019-03-11T18:06:11.029Z,6.00
2019-03-11T18:08:34.817Z,6.00
2019-03-11T18:11:05.259Z,6.00
2019-03-11T18:13:36.009Z,5.90
2019-03-11T18:16:06.614Z,5.80
2019-03-11T18:18:37.331Z,5.80
2019-03-11T18:21:07.701Z,5.80
2019-03-11T18:23:38.034Z,5.80
2019-03-11T18:26:08.411Z,5.70
2019-03-11T18:28:39.263Z,5.80
2019-03-11T18:31:10.050Z,5.70
2019-03-11T18:33:40.418Z,5.70
2019-03-11T18:36:11.103Z,5.60
2019-03-11T18:38:41.595Z,5.70
2019-03-11T18:41:12.169Z,5.70
2019-03-11T18:43:43.320Z,5.70
2019-03-11T18:46:13.710Z,5.70
2019-03-11T18:48:44.602Z,5.70
2019-03-11T18:51:15.199Z,5.60
2019-03-11T18:53:45.924Z,5.40
2019-03-11T18:56:16.561Z,5.20
2019-03-11T18:58:47.375Z,5.10
2019-03-11T19:01:17.794Z,4.90
2019-03-11T19:03:48.151Z,4.70
2019-03-11T19:06:18.750Z,4.50
2019-03-11T19:08:49.529Z,4.30
2019-03-11T19:11:20.217Z,4.30
2019-03-11T19:13:50.513Z,4.30
2019-03-11T19:16:23.082Z,4.20
2019-03-11T19:18:53.678Z,4.20
2019-03-11T19:21:24.053Z,4.00
2019-03-11T19:23:54.795Z,4.00
2019-03-11T19:26:25.710Z,4.00
2019-03-11T19:28:56.328Z,4.00
2019-03-11T19:31:26.855Z,4.00
2019-03-11T19:33:57.243Z,4.00
2019-03-11T19:36:27.669Z,4.10
2019-03-11T19:38:58.408Z,4.10
2019-03-11T19:41:29.021Z,4.10
2019-03-11T19:43:59.441Z,4.10
2019-03-11T19:46:29.789Z,4.10
2019-03-11T19:49:00.196Z,4.20
2019-03-11T19:51:30.538Z,4.20
2019-03-11T19:54:00.854Z,4.10
2019-03-11T19:56:31.660Z,4.20
2019-03-11T19:59:02.390Z,4.10
2019-03-11T20:01:34.866Z,4.20
2019-03-11T20:04:05.282Z,4.10
2019-03-11T20:06:35.886Z,4.10
2019-03-11T20:09:09.015Z,4.10
2019-03-11T20:11:39.336Z,4.10
2019-03-11T20:14:09.734Z,4.00
2019-03-11T20:16:40.443Z,4.00
2019-03-11T20:19:10.907Z,3.90
2019-03-11T20:21:41.736Z,3.90
2019-03-11T20:24:12.122Z,3.80
2019-03-11T20:26:50.559Z,3.80
2019-03-11T20:29:26.210Z,3.70
2019-03-11T20:31:57.017Z,3.70
2019-03-11T20:34:27.657Z,3.60
2019-03-11T20:36:58.006Z,3.60
2019-03-11T20:39:28.374Z,3.60
2019-03-11T20:41:58.768Z,3.60
2019-03-11T20:44:29.193Z,3.60
2019-03-11T20:46:59.528Z,3.60
2019-03-11T20:49:29.939Z,3.70
2019-03-11T20:52:00.226Z,3.70
2019-03-11T20:54:31.870Z,3.70
2019-03-11T20:57:02.661Z,3.60
2019-03-11T20:59:33.384Z,3.60
2019-03-11T21:02:04.147Z,3.50
2019-03-11T21:04:34.541Z,3.50
2019-03-11T21:07:05.746Z,3.40
2019-03-11T21:09:36.846Z,3.40
2019-03-11T21:12:07.161Z,3.30
2019-03-11T21:14:37.562Z,3.20
2019-03-11T21:17:07.907Z,3.10
2019-03-11T21:19:38.255Z,3.10
2019-03-11T21:22:28.347Z,3.00
2019-03-11T21:24:59.964Z,3.00
2019-03-11T21:27:50.003Z,3.10
2019-03-11T21:30:23.069Z,3.10
2019-03-11T21:32:53.395Z,3.10
2019-03-11T21:35:23.809Z,3.10
2019-03-11T21:37:54.435Z,3.10
2019-03-11T21:40:25.620Z,3.10
2019-03-11T21:43:16.535Z,3.10
2019-03-11T21:45:46.982Z,3.20
2019-03-11T21:48:17.299Z,3.20
2019-03-11T21:50:47.733Z,3.30
2019-03-11T21:53:18.017Z,3.30
2019-03-11T21:55:48.342Z,3.30
2019-03-11T21:58:18.881Z,3.30
2019-03-11T22:00:49.544Z,3.40
2019-03-11T22:03:20.217Z,3.50
2019-03-11T22:05:51.166Z,3.60
2019-03-11T22:08:21.778Z,3.70
2019-03-11T22:10:52.134Z,3.70
2019-03-11T22:13:22.887Z,3.80
2019-03-11T22:15:53.584Z,3.80
2019-03-11T22:18:23.930Z,3.90
2019-03-11T22:20:54.316Z,3.90
2019-03-11T22:23:24.929Z,3.80
2019-03-11T22:25:55.540Z,3.80
2019-03-11T22:28:26.251Z,3.90
2019-03-11T22:30:56.601Z,3.90
2019-03-11T22:33:27.622Z,3.90
2019-03-11T22:35:57.935Z,4.00
2019-03-11T22:38:29.004Z,4.00
2019-03-11T22:40:59.643Z,4.00
2019-03-11T22:43:30.022Z,3.90
2019-03-11T22:46:00.404Z,3.90
2019-03-11T22:48:31.435Z,3.90
2019-03-11T22:51:01.811Z,3.90
2019-03-11T22:53:32.646Z,3.90
2019-03-11T22:56:03.329Z,3.80
2019-03-11T22:58:33.923Z,3.70
2019-03-11T23:01:04.884Z,3.70
2019-03-11T23:03:35.199Z,3.60
2019-03-11T23:06:05.575Z,3.50
2019-03-11T23:08:35.942Z,3.50
2019-03-11T23:11:06.550Z,3.40
2019-03-11T23:13:37.255Z,3.40
2019-03-11T23:16:07.674Z,3.30
2019-03-11T23:18:38.057Z,3.30
2019-03-11T23:21:08.482Z,3.30
2019-03-11T23:23:39.114Z,3.30
2019-03-11T23:26:09.458Z,3.30
2019-03-11T23:28:39.870Z,3.30
2019-03-11T23:31:10.560Z,3.30
2019-03-11T23:33:41.803Z,3.30
2019-03-11T23:36:12.427Z,3.20
2019-03-11T23:38:42.770Z,3.10
2019-03-11T23:41:13.716Z,3.10
2019-03-11T23:43:44.547Z,3.00
2019-03-11T23:46:14.878Z,3.00
2019-03-11T23:48:45.834Z,3.00
2019-03-11T23:51:16.237Z,3.00
2019-03-11T23:53:46.884Z,3.00
2019-03-11T23:56:17.202Z,2.90
2019-03-11T23:58:47.569Z,2.90
